<?xml version="1.0" encoding="utf-8"?>
<gpx xmlns:xsi="http://www.w3.org/2001/XMLSchema-instance" xmlns:xsd="http://www.w3.org/2001/XMLSchema" version="1.1" creator="Shapelink.com" xmlns="http://www.topografix.com/GPX/1/1" xmlns:gpxtpx="http://www.garmin.com/xmlschemas/TrackPointExtension/v1">
  <metadata>
    <name>Övrigt 1.76 km, 2019-06-02</name>
    <desc></desc>
    <author><name>Marian Moron</name></author> 
    <time>2019-06-02T13:38:05Z</time>
  </metadata>
  <trk>
    <name>Övrigt 1.76 km, 2019-06-02</name>
    <trkseg>
      <trkpt lat="51.889374785391" lon="4.486818832426">
        <ele>8.2</ele>
        <time>2019-06-02T13:38:05Z</time>
      </trkpt>
      <trkpt lat="51.888842702379" lon="4.486921175425">
        <ele>4.8</ele>
        <time>2019-06-02T13:38:38Z</time>
      </trkpt>
      <trkpt lat="51.88871856644" lon="4.487102224465">
        <ele>2.2</ele>
        <time>2019-06-02T13:38:50Z</time>
      </trkpt>
      <trkpt lat="51.888471719485" lon="4.487627518138">
        <ele>0</ele>
        <time>2019-06-02T13:39:28Z</time>
      </trkpt>
      <trkpt lat="51.888384799182" lon="4.487693232234">
        <ele>0</ele>
        <time>2019-06-02T13:39:41Z</time>
      </trkpt>
      <trkpt lat="51.888363425337" lon="4.48774888805">
        <ele>0</ele>
        <time>2019-06-02T13:39:46Z</time>
      </trkpt>
      <trkpt lat="51.888305674046" lon="4.488249538937">
        <ele>0</ele>
        <time>2019-06-02T13:40:17Z</time>
      </trkpt>
      <trkpt lat="51.888361916595" lon="4.488586491317">
        <ele>0</ele>
        <time>2019-06-02T13:40:47Z</time>
      </trkpt>
      <trkpt lat="51.888327466986" lon="4.488453638202">
        <ele>0</ele>
        <time>2019-06-02T13:41:22Z</time>
      </trkpt>
      <trkpt lat="51.888332077031" lon="4.488460846636">
        <ele>0</ele>
        <time>2019-06-02T13:41:29Z</time>
      </trkpt>
      <trkpt lat="51.888243396529" lon="4.488572577363">
        <ele>0</ele>
        <time>2019-06-02T13:42:39Z</time>
      </trkpt>
      <trkpt lat="51.888250940239" lon="4.488349702642">
        <ele>0</ele>
        <time>2019-06-02T13:42:57Z</time>
      </trkpt>
      <trkpt lat="51.888266279116" lon="4.488123894256">
        <ele>0</ele>
        <time>2019-06-02T13:43:14Z</time>
      </trkpt>
      <trkpt lat="51.888464175775" lon="4.487646796508">
        <ele>0</ele>
        <time>2019-06-02T13:43:47Z</time>
      </trkpt>
      <trkpt lat="51.888536846848" lon="4.487370529084">
        <ele>0</ele>
        <time>2019-06-02T13:44:00Z</time>
      </trkpt>
      <trkpt lat="51.888565010032" lon="4.487241280186">
        <ele>0</ele>
        <time>2019-06-02T13:44:13Z</time>
      </trkpt>
      <trkpt lat="51.888641285322" lon="4.487032151781">
        <ele>3.2</ele>
        <time>2019-06-02T13:44:29Z</time>
      </trkpt>
      <trkpt lat="51.888854604677" lon="4.487074648014">
        <ele>5.8</ele>
        <time>2019-06-02T13:44:56Z</time>
      </trkpt>
      <trkpt lat="51.889254253669" lon="4.487388550169">
        <ele>24.6</ele>
        <time>2019-06-02T13:45:44Z</time>
      </trkpt>
      <trkpt lat="51.889269089632" lon="4.487357285682">
        <ele>26.8</ele>
        <time>2019-06-02T13:46:13Z</time>
      </trkpt>
      <trkpt lat="51.88938157473" lon="4.487374720034">
        <ele>26.6</ele>
        <time>2019-06-02T13:46:25Z</time>
      </trkpt>
      <trkpt lat="51.889541920477" lon="4.487450827686">
        <ele>5.2</ele>
        <time>2019-06-02T13:46:41Z</time>
      </trkpt>
      <trkpt lat="51.889566647082" lon="4.487386119418">
        <ele>0</ele>
        <time>2019-06-02T13:46:50Z</time>
      </trkpt>
      <trkpt lat="51.88969002865" lon="4.486674496108">
        <ele>0</ele>
        <time>2019-06-02T13:47:33Z</time>
      </trkpt>
      <trkpt lat="51.889894798467" lon="4.486086505823">
        <ele>1.4</ele>
        <time>2019-06-02T13:48:08Z</time>
      </trkpt>
      <trkpt lat="51.889936205053" lon="4.485866229491">
        <ele>0</ele>
        <time>2019-06-02T13:48:22Z</time>
      </trkpt>
      <trkpt lat="51.889957578898" lon="4.485765646691">
        <ele>0</ele>
        <time>2019-06-02T13:48:27Z</time>
      </trkpt>
      <trkpt lat="51.889977360182" lon="4.485664644796">
        <ele>0</ele>
        <time>2019-06-02T13:48:33Z</time>
      </trkpt>
      <trkpt lat="51.889991022679" lon="4.485541179409">
        <ele>0</ele>
        <time>2019-06-02T13:48:39Z</time>
      </trkpt>
      <trkpt lat="51.890016671293" lon="4.485277484835">
        <ele>0</ele>
        <time>2019-06-02T13:48:54Z</time>
      </trkpt>
      <trkpt lat="51.890115745351" lon="4.48512535335">
        <ele>0</ele>
        <time>2019-06-02T13:49:06Z</time>
      </trkpt>
      <trkpt lat="51.890141896879" lon="4.484945813052">
        <ele>0</ele>
        <time>2019-06-02T13:49:17Z</time>
      </trkpt>
      <trkpt lat="51.890269804673" lon="4.484233686828">
        <ele>0</ele>
        <time>2019-06-02T13:49:57Z</time>
      </trkpt>
      <trkpt lat="51.890565266648" lon="4.483771425043">
        <ele>8.8</ele>
        <time>2019-06-02T13:50:44Z</time>
      </trkpt>
      <trkpt lat="51.890557806757" lon="4.483780477495">
        <ele>8.2</ele>
        <time>2019-06-02T13:50:45Z</time>
      </trkpt>
      <trkpt lat="51.890415733552" lon="4.48445815411">
        <ele>0</ele>
        <time>2019-06-02T13:51:26Z</time>
      </trkpt>
      <trkpt lat="51.890343565393" lon="4.484814049584">
        <ele>0</ele>
        <time>2019-06-02T13:51:45Z</time>
      </trkpt>
      <trkpt lat="51.89017869342" lon="4.485400531127">
        <ele>4.2</ele>
        <time>2019-06-02T13:52:26Z</time>
      </trkpt>
      <trkpt lat="51.890174334832" lon="4.486116596844">
        <ele>12.6</ele>
        <time>2019-06-02T13:53:07Z</time>
      </trkpt>
      <trkpt lat="51.889986161177" lon="4.486830399448">
        <ele>5.2</ele>
        <time>2019-06-02T13:53:45Z</time>
      </trkpt>
      <trkpt lat="51.889702098586" lon="4.487415036973">
        <ele>0</ele>
        <time>2019-06-02T13:54:14Z</time>
      </trkpt>
      <trkpt lat="51.88956262377" lon="4.48756113349">
        <ele>0</ele>
        <time>2019-06-02T13:54:28Z</time>
      </trkpt>
      <trkpt lat="51.88915274886" lon="4.487378910984">
        <ele>0</ele>
        <time>2019-06-02T13:55:07Z</time>
      </trkpt>
      <trkpt lat="51.888940519152" lon="4.487001725484">
        <ele>6.8</ele>
        <time>2019-06-02T13:55:41Z</time>
      </trkpt>
      <trkpt lat="51.888931550519" lon="4.48702469189">
        <ele>17.8</ele>
        <time>2019-06-02T13:56:30Z</time>
      </trkpt>
      <trkpt lat="51.888752596954" lon="4.487122424844">
        <ele>7.4</ele>
        <time>2019-06-02T13:56:54Z</time>
      </trkpt>
      <trkpt lat="51.888601052202" lon="4.487746960213">
        <ele>4.6</ele>
        <time>2019-06-02T13:57:42Z</time>
      </trkpt>
      <trkpt lat="51.888568865706" lon="4.487508830434">
        <ele>5.4</ele>
        <time>2019-06-02T14:12:09Z</time>
      </trkpt>
      <trkpt lat="51.888854269401" lon="4.487060063508">
        <ele>0</ele>
        <time>2019-06-02T14:12:55Z</time>
      </trkpt>
      <trkpt lat="51.888884611879" lon="4.487080096249">
        <ele>0</ele>
        <time>2019-06-02T14:12:58Z</time>
      </trkpt>
      <trkpt lat="51.889184432442" lon="4.487192581347">
        <ele>0</ele>
        <time>2019-06-02T14:15:10Z</time>
      </trkpt>
      <trkpt lat="51.889215277834" lon="4.487214709563">
        <ele>0</ele>
        <time>2019-06-02T14:15:14Z</time>
      </trkpt>
      <trkpt lat="51.889338407945" lon="4.487333061991">
        <ele>0</ele>
        <time>2019-06-02T14:15:32Z</time>
      </trkpt>
      <trkpt lat="51.889338407945" lon="4.487473374997">
        <ele>0</ele>
        <time>2019-06-02T14:16:43Z</time>
      </trkpt>
      <trkpt lat="51.889247715787" lon="4.487452336428">
        <ele>0</ele>
        <time>2019-06-02T14:16:54Z</time>
      </trkpt>
      <trkpt lat="51.88921142216" lon="4.487448983668">
        <ele>0</ele>
        <time>2019-06-02T14:16:57Z</time>
      </trkpt>
      <trkpt lat="51.88884848589" lon="4.486964174572">
        <ele>7</ele>
        <time>2019-06-02T14:18:07Z</time>
      </trkpt>
      <trkpt lat="51.888702054097" lon="4.486967527332">
        <ele>10.2</ele>
        <time>2019-06-02T14:18:26Z</time>
      </trkpt>
      <trkpt lat="51.888655869828" lon="4.486927294212">
        <ele>7.8</ele>
        <time>2019-06-02T14:18:32Z</time>
      </trkpt>
      <trkpt lat="51.888598286175" lon="4.486896113544">
        <ele>1.6</ele>
        <time>2019-06-02T14:18:50Z</time>
      </trkpt>
      <trkpt lat="51.888478508824" lon="4.486771055596">
        <ele>0</ele>
        <time>2019-06-02T14:19:18Z</time>
      </trkpt>
      <trkpt lat="51.888805151467" lon="4.487053693264">
        <ele>1.4</ele>
        <time>2019-06-02T14:20:34Z</time>
      </trkpt>
      <trkpt lat="51.888951834717" lon="4.48708420338">
        <ele>2</ele>
        <time>2019-06-02T14:20:52Z</time>
      </trkpt>
      <trkpt lat="51.889022577953" lon="4.487092669099">
        <ele>2.8</ele>
        <time>2019-06-02T14:20:59Z</time>
      </trkpt>
      <trkpt lat="51.889245033579" lon="4.487263492221">
        <ele>11</ele>
        <time>2019-06-02T14:22:26Z</time>
      </trkpt>
      <trkpt lat="51.889325918914" lon="4.487265084782">
        <ele>11.6</ele>
        <time>2019-06-02T14:22:35Z</time>
      </trkpt>
      <trkpt lat="51.889553236042" lon="4.487198364858">
        <ele>6.2</ele>
        <time>2019-06-02T14:22:55Z</time>
      </trkpt>
      <trkpt lat="51.889235562032" lon="4.487419060285">
        <ele>0</ele>
        <time>2019-06-02T14:29:14Z</time>
      </trkpt>
      <trkpt lat="51.889109582075" lon="4.487173805891">
        <ele>0.6</ele>
        <time>2019-06-02T14:31:15Z</time>
      </trkpt>
    </trkseg>
  </trk>
</gpx>